METAR AND TAF INFORMATION
METAR FOR SEST
ADDS - METARS form results

(1712 UTC 05 July 2020)
Data provider http://aviationweather.gov/metar/data/
 
METAR text: SEST 051700Z 17016KT 9999 FEW016 BKN060 24/19 Q1011 A2988
Conditions at: SEST (SAN CRISTOBAL IS, EC) observed 1700 UTC 05 July 2020
Temperature: 24.0°C (75°F)
Dewpoint: 19.0°C (66°F) [RH = 74%]
Pressure (altimeter): 29.85 inches Hg (1011.0 mb)
Winds: from the S (170 degrees) at 18 MPH (16 knots; 8.2 m/s)
Visibility: 6 or more miles (10+ km)
Ceiling: 6000 feet AGL
Clouds: few clouds at 1600 feet AGL
broken clouds at 6000 feet AGL
Weather: no significant weather observed at this time

 AIRPORT MAP

 RUNWAY INFORMATION
Runway 16 Runway length 6214 ft Runway width 66 ft
Runway elevation 27 ft Runway displaced threshold 0 ft Runway heading 169
Runway 34 Runway length 6214 ft Runway width 66 ft
Runway elevation 52 ft Runway displaced threshold 0 ft Runway heading 349

 AIRPORT FREQUENCIES
Type TWR Name TWR Frequency 122.5 MHZ

 AIRPORT NEAR NAVIGATION AIDS
Type NDB Name San Cristobal Frequency 300 KHZ
Type VOR-DME Name San Cristobal Frequency 113100 KHZ